METAR Data
IDs: Format: Raw Decoded Include TAF

Data at: 0715 UTC 01 Aug 2021

EDDE 010650Z 21005KT CAVOK 14/12 Q1009 NOSIG